Empire State — WDE4431 — position and weather

sailwx.info

Track history (hours):
 
Tides and Currents Weather Stations Pressure Air Temp Water Temp Dewpoint Dewpoint Depression Visibility Wind Speed Wind Dir Waves Ship Positions

Empire State

Owner: Crowley Petroleum Services, Jacksonville, FL. More information available from US FCC via Universal Licensing System and Coast Guard Vessel Documentation Center.

Last reported at 2015-Aug-30 07:13 UTC. Time now 2015-Aug-30 09:54 UTC.
Position N 33°45' W 118°17'.

Length 183 m; draft 10.3 m.

Type: Military. MMSI: 367353080.

Date/timePositionNaut miles runAvg speedWind from/ knotsBaromVisibWave heightAir tempDewpointWater temp
2015-Aug-30 07:13N 33°45' W 118°17'0 0.0
2015-Aug-30 04:07N 33°45' W 118°17'0 0.0
2015-Aug-30 03:31N 33°45' W 118°17'0 0.0
2015-Aug-30 01:16N 33°45' W 118°17'0 0.0
2015-Aug-30 00:31N 33°45' W 118°17'0 0.0
2015-Aug-29 23:25N 33°45' W 118°17'0 0.0
2015-Aug-29 21:19N 33°45' W 118°17'0 0.0
2015-Aug-29 20:25N 33°45' W 118°17'0 0.0
2015-Aug-29 19:28N 33°45' W 118°17'0 0.0
2015-Aug-29 18:28N 33°45' W 118°17'0 0.0
2015-Aug-29 17:22N 33°45' W 118°17'0 0.0
2015-Aug-29 16:25N 33°45' W 118°17'0 0.0
2015-Aug-29 15:22N 33°45' W 118°17'0 0.0
2015-Aug-29 12:25N 33°45' W 118°17'0 0.0
2015-Aug-29 11:13N 33°45' W 118°17'0 0.0
2015-Aug-29 10:31N 33°45' W 118°17'0 0.0
2015-Aug-29 09:25N 33°45' W 118°17'0 0.0
2015-Aug-29 07:07N 33°45' W 118°17'0 0.0
2015-Aug-29 06:25N 33°45' W 118°17'0 0.0
2015-Aug-29 05:25N 33°45' W 118°17'0 0.0
2015-Aug-29 04:31N 33°45' W 118°17'0 0.0
2015-Aug-29 03:31N 33°45' W 118°17'0 0.0
2015-Aug-29 02:28N 33°45' W 118°17'0 0.0
2015-Aug-29 01:31N 33°45' W 118°17'0 0.0
2015-Aug-29 00:28N 33°45' W 118°17'0 0.0
2015-Aug-28 23:25N 33°45' W 118°17'0 0.0
2015-Aug-28 21:04N 33°45' W 118°17'0 0.0
2015-Aug-28 20:22N 33°45' W 118°17'0 0.0
2015-Aug-28 18:16N 33°45' W 118°17'0 0.0
2015-Aug-28 15:19N 33°45' W 118°17'0 0.4
2015-Aug-28 14:33N 33°45' W 118°17'5 4.7
2015-Aug-28 13:33N 33°42' W 118°12'0 0.1
2015-Aug-28 12:25N 33°42' W 118°12'0 0.0
2015-Aug-28 11:28N 33°42' W 118°12'0 0.0
2015-Aug-28 10:13N 33°42' W 118°12'0 0.0
2015-Aug-28 09:31N 33°42' W 118°12'0 0.1
2015-Aug-28 08:31N 33°42' W 118°12'0 0.0
2015-Aug-28 07:31N 33°42' W 118°12'0 0.1
2015-Aug-28 06:19N 33°42' W 118°12'0 0.0
2015-Aug-28 05:31N 33°42' W 118°12'0 0.1
2015-Aug-28 04:31N 33°42' W 118°12'0 0.1
2015-Aug-28 03:31N 33°42' W 118°12'0 0.1
2015-Aug-28 02:31N 33°42' W 118°12'0 0.0
2015-Aug-28 01:25N 33°42' W 118°12'0 0.0
2015-Aug-28 00:31N 33°42' W 118°12'0 0.0
2015-Aug-27 23:31N 33°42' W 118°12'1 0.5
2015-Aug-27 22:33N 33°42' W 118°12'5 5.5
2015-Aug-27 21:33N 33°37' W 118°15'9 8.5
2015-Aug-27 20:33N 33°36' W 118°26'9 8.8
2015-Aug-27 19:33N 33°37' W 118°36'9 8.5
2015-Aug-27 18:33N 33°38' W 118°46'8 8.3
2015-Aug-27 17:33N 33°38' W 118°56'8 8.4
2015-Aug-27 16:33N 33°38' W 119°07'9 8.8
2015-Aug-27 15:33N 33°38' W 119°17'8 8.2
2015-Aug-27 14:33N 33°38' W 119°27'8 8.4
2015-Aug-27 13:33N 33°38' W 119°37'9 8.2
2015-Aug-27 12:29N 33°38' W 119°47'8 8.1
2015-Aug-27 11:33N 33°38' W 119°57'8 8.5
2015-Aug-27 10:34N 33°38' W 120°07'8 8.4
2015-Aug-27 09:33N 33°38' W 120°17'8 8.4
2015-Aug-27 08:33N 33°38' W 120°27'9 8.8
2015-Aug-27 07:33N 33°38' W 120°37'9 8.7
2015-Aug-27 06:33N 33°38' W 120°48'8 8.1
2015-Aug-27 05:33N 33°43' W 120°56'8 8.5
2015-Aug-27 04:33N 33°48' W 121°04'9 8.8
2015-Aug-27 03:33N 33°53' W 121°13'9 8.9
2015-Aug-27 02:32N 33°58' W 121°22'9 8.7
2015-Aug-27 01:33N 34°04' W 121°30'8 8.6
2015-Aug-27 00:33N 34°09' W 121°38'9 8.8
2015-Aug-26 23:33N 34°14' W 121°47'9 9.4
2015-Aug-26 22:33N 34°20' W 121°56'1514.7
2015-Aug-26 21:33N 34°29' W 122°10'1414.4
2015-Aug-26 20:33N 34°37' W 122°24'1515.0
2015-Aug-26 19:33N 34°46' W 122°38'1515.1
2015-Aug-26 18:33N 34°56' W 122°53'1414.0
2015-Aug-26 17:33N 35°07' W 123°02'1514.9
2015-Aug-26 16:33N 35°22' W 123°06'1514.6
2015-Aug-26 15:33N 35°36' W 123°10'1414.4
2015-Aug-26 14:33N 35°50' W 123°14'1814.3
2015-Aug-26 13:17N 36°08' W 123°19'1014.3
2015-Aug-26 12:33N 36°18' W 123°21'1614.3
2015-Aug-26 11:28N 36°33' W 123°25'1414.6
2015-Aug-26 10:30N 36°47' W 123°29'1713.8
2015-Aug-26 09:16N 37°04' W 123°26'1014.6
2015-Aug-26 08:33N 37°13' W 123°19'1514.7
2015-Aug-26 07:31N 37°26' W 123°10'1212.6
2015-Aug-26 06:33N 37°36' W 123°01'1110.9
2015-Aug-26 05:33N 37°42' W 122°49'1010.2
2015-Aug-26 04:33N 37°46' W 122°38'1110.8
2015-Aug-26 03:34N 37°51' W 122°25'8 8.2
2015-Aug-26 02:33N 37°59' W 122°26'7 7.3
2015-Aug-26 01:34N 38°03' W 122°18'3 2.9
2015-Aug-26 00:33N 38°04' W 122°15'0 0.0
2015-Aug-25 23:33N 38°04' W 122°15'0 0.0
2015-Aug-25 22:33N 38°04' W 122°15'0 0.0
2015-Aug-25 21:33N 38°04' W 122°15'0 0.0
2015-Aug-25 20:33N 38°04' W 122°15'0 0.0
2015-Aug-25 19:27N 38°04' W 122°15'0 0.0
2015-Aug-25 18:21N 38°04' W 122°15'0 0.0
2015-Aug-25 16:33N 38°04' W 122°15'0 0.0
2015-Aug-25 15:27N 38°04' W 122°15'0 0.0
2015-Aug-25 14:33N 38°04' W 122°15'0 0.0
2015-Aug-25 13:33N 38°04' W 122°15'0 0.0
2015-Aug-25 12:27N 38°04' W 122°15'0 0.0
2015-Aug-25 11:33N 38°04' W 122°15'0 0.0
2015-Aug-25 10:33N 38°04' W 122°15'0 0.0
2015-Aug-25 09:33N 38°04' W 122°15'0 0.0
2015-Aug-25 08:27N 38°04' W 122°15'0 0.0
2015-Aug-25 07:33N 38°04' W 122°15'0 0.0
2015-Aug-25 06:27N 38°04' W 122°15'0 0.0
2015-Aug-25 05:33N 38°04' W 122°15'0 0.0
2015-Aug-25 04:33N 38°04' W 122°15'0 0.0
2015-Aug-25 03:33N 38°04' W 122°15'0 0.0
2015-Aug-25 02:33N 38°04' W 122°15'0 0.0
2015-Aug-25 01:33N 38°04' W 122°15'0 0.0
2015-Aug-25 00:33N 38°04' W 122°15'0 0.0
2015-Aug-24 23:33N 38°04' W 122°15'0 0.0
2015-Aug-24 22:27N 38°04' W 122°15'0 0.0
2015-Aug-24 21:27N 38°04' W 122°15'0 0.0
2015-Aug-24 20:33N 38°04' W 122°15'0 0.0
2015-Aug-24 19:33N 38°04' W 122°15'0 0.0
2015-Aug-24 18:33N 38°04' W 122°15'0 0.0
2015-Aug-24 17:21N 38°04' W 122°15'0 0.0
2015-Aug-24 16:33N 38°04' W 122°15'0 0.0
2015-Aug-24 15:33N 38°04' W 122°15'0 0.0
2015-Aug-24 14:09N 38°04' W 122°15'0 0.0
2015-Aug-24 13:33N 38°04' W 122°15'0 0.0
2015-Aug-24 12:33N 38°04' W 122°15'0 0.0
2015-Aug-24 11:33N 38°04' W 122°15'0 0.0
2015-Aug-24 10:27N 38°04' W 122°15'0 0.0
2015-Aug-24 09:33N 38°04' W 122°15'0 0.0
2015-Aug-24 08:33N 38°04' W 122°15'0 0.0
2015-Aug-24 07:33N 38°04' W 122°15'0 0.0
2015-Aug-24 06:33N 38°04' W 122°15'0 0.0
2015-Aug-24 05:33N 38°04' W 122°15'0 0.0
2015-Aug-24 04:27N 38°04' W 122°15'0 0.0
2015-Aug-24 03:33N 38°04' W 122°15'0 0.0
2015-Aug-24 02:33N 38°04' W 122°15'0 0.0
2015-Aug-24 01:21N 38°04' W 122°15'0 0.0
2015-Aug-24 00:33N 38°04' W 122°15'0 0.0
2015-Aug-23 23:33N 38°04' W 122°15'0 0.0
2015-Aug-23 22:28N 38°04' W 122°15'0 0.0
2015-Aug-23 21:28N 38°04' W 122°15'0 0.0
2015-Aug-23 20:28N 38°04' W 122°15'0 0.0
2015-Aug-23 19:28N 38°04' W 122°15'0 0.0
2015-Aug-23 18:22N 38°04' W 122°15'0 0.4
2015-Aug-23 17:33N 38°04' W 122°15'9 8.7
2015-Aug-23 16:33N 37°60' W 122°25'1212.4
2015-Aug-23 15:33N 37°48' W 122°22'2 2.0
2015-Aug-23 14:32N 37°46' W 122°20'0 0.0
2015-Aug-23 13:32N 37°46' W 122°20'0 0.0
2015-Aug-23 12:32N 37°46' W 122°20'0 0.0
2015-Aug-23 11:32N 37°46' W 122°20'0 0.0
2015-Aug-23 10:32N 37°46' W 122°20'0 0.0
2015-Aug-23 09:32N 37°46' W 122°20'0 0.1
2015-Aug-23 08:32N 37°46' W 122°20'0 0.1
2015-Aug-23 07:32N 37°46' W 122°20'0 0.0
2015-Aug-23 06:32N 37°46' W 122°20'0 0.0
2015-Aug-23 05:32N 37°46' W 122°20'0 0.0
2015-Aug-23 04:32N 37°46' W 122°20'0 0.0
2015-Aug-23 03:32N 37°46' W 122°20'0 0.1
2015-Aug-23 02:32N 37°46' W 122°20'0 0.1
2015-Aug-23 01:32N 37°46' W 122°20'0 0.0
2015-Aug-23 00:32N 37°46' W 122°20'0 0.1
2015-Aug-22 23:32N 37°46' W 122°20'0 0.1
2015-Aug-22 22:32N 37°46' W 122°20'0 0.0
2015-Aug-22 21:31N 37°46' W 122°20'0 0.0
2015-Aug-22 20:31N 37°46' W 122°20'0 0.1
2015-Aug-22 19:34N 37°46' W 122°20'0 0.2
2015-Aug-22 18:31N 37°46' W 122°20'0 0.1
2015-Aug-22 17:31N 37°46' W 122°20'0 0.0
2015-Aug-22 16:31N 37°46' W 122°20'0 0.0
2015-Aug-22 15:34N 37°46' W 122°20'0 0.0
2015-Aug-22 14:34N 37°46' W 122°20'0 0.1
2015-Aug-22 13:31N 37°46' W 122°20'0 0.1
2015-Aug-22 12:31N 37°46' W 122°20'0 0.0
2015-Aug-22 11:34N 37°46' W 122°20'0 0.0
2015-Aug-22 10:31N 37°46' W 122°20'0 0.0
2015-Aug-22 09:34N 37°46' W 122°20'0 0.0
2015-Aug-22 08:34N 37°46' W 122°20'0 0.1
2015-Aug-22 07:31N 37°46' W 122°20'0 0.1
2015-Aug-22 06:31N 37°46' W 122°20'0 0.0
2015-Aug-22 05:31N 37°46' W 122°20'0 0.0
2015-Aug-22 04:31N 37°46' W 122°20'0 0.0
2015-Aug-22 03:31N 37°46' W 122°20'0 0.0
2015-Aug-22 02:31N 37°46' W 122°20'0 0.0
2015-Aug-22 01:31N 37°46' W 122°20'0 0.1
2015-Aug-22 00:31N 37°46' W 122°20'0 0.1
2015-Aug-21 23:31N 37°46' W 122°20'0 0.0
2015-Aug-21 22:31N 37°46' W 122°20'0 0.0
2015-Aug-21 21:31N 37°46' W 122°20'0 0.0
2015-Aug-21 20:31N 37°46' W 122°20'5 5.7
2015-Aug-21 19:34N 37°49' W 122°26'1312.7
2015-Aug-21 18:33N 37°44' W 122°41'10 9.8
2015-Aug-21 17:33N 37°39' W 122°51'10 9.8
2015-Aug-21 16:33N 37°33' W 123°01'9 9.4
2015-Aug-21 15:33N 37°28' W 123°11'9 9.4
2015-Aug-21 14:33N 37°24' W 123°22'8 7.8
2015-Aug-21 13:33N 37°22' W 123°31'1010.6
2015-Aug-21 12:34N 37°32' W 123°34'1414.0
2015-Aug-21 11:33N 37°42' W 123°47'1413.8
2015-Aug-21 10:33N 37°51' W 124°00'1413.8
2015-Aug-21 09:34N 38°01' W 124°12'1413.9
2015-Aug-21 08:33N 38°12' W 124°23'1414.2
2015-Aug-21 07:33N 38°24' W 124°33'1414.2
2015-Aug-21 06:33N 38°35' W 124°44'1414.2
2015-Aug-21 05:33N 38°48' W 124°53'1614.6
2015-Aug-21 04:29N 39°02' W 125°02'28514.2
2015-Aug-20 08:28N 43°45' W 125°45'1414.0
2015-Aug-20 07:29N 43°59' W 125°45'  
Track history (hours):
 
Tides and Currents Weather Stations Pressure Air Temp Water Temp Dewpoint Dewpoint Depression Visibility Wind Speed Wind Dir Waves Ship Positions

Empire State

Owner: Crowley Petroleum Services, Jacksonville, FL. More information available from US FCC via Universal Licensing System and Coast Guard Vessel Documentation Center.

Last reported at 2015-Aug-30 07:13 UTC. Time now 2015-Aug-30 09:54 UTC.
Position N 33°45' W 118°17'.

Length 183 m; draft 10.3 m.

Type: Military. MMSI: 367353080.

Date/timePositionNaut miles runAvg speedWind from/ knotsBaromVisibWave heightAir tempDewpointWater temp
2015-Aug-30 07:13N 33°45' W 118°17'0 0.0
2015-Aug-30 04:07N 33°45' W 118°17'0 0.0
2015-Aug-30 03:31N 33°45' W 118°17'0 0.0
2015-Aug-30 01:16N 33°45' W 118°17'0 0.0
2015-Aug-30 00:31N 33°45' W 118°17'0 0.0
2015-Aug-29 23:25N 33°45' W 118°17'0 0.0
2015-Aug-29 21:19N 33°45' W 118°17'0 0.0
2015-Aug-29 20:25N 33°45' W 118°17'0 0.0
2015-Aug-29 19:28N 33°45' W 118°17'0 0.0
2015-Aug-29 18:28N 33°45' W 118°17'0 0.0
2015-Aug-29 17:22N 33°45' W 118°17'0 0.0
2015-Aug-29 16:25N 33°45' W 118°17'0 0.0
2015-Aug-29 15:22N 33°45' W 118°17'0 0.0
2015-Aug-29 12:25N 33°45' W 118°17'0 0.0
2015-Aug-29 11:13N 33°45' W 118°17'0 0.0
2015-Aug-29 10:31N 33°45' W 118°17'0 0.0
2015-Aug-29 09:25N 33°45' W 118°17'0 0.0
2015-Aug-29 07:07N 33°45' W 118°17'0 0.0
2015-Aug-29 06:25N 33°45' W 118°17'0 0.0
2015-Aug-29 05:25N 33°45' W 118°17'0 0.0
2015-Aug-29 04:31N 33°45' W 118°17'0 0.0
2015-Aug-29 03:31N 33°45' W 118°17'0 0.0
2015-Aug-29 02:28N 33°45' W 118°17'0 0.0
2015-Aug-29 01:31N 33°45' W 118°17'0 0.0
2015-Aug-29 00:28N 33°45' W 118°17'0 0.0
2015-Aug-28 23:25N 33°45' W 118°17'0 0.0
2015-Aug-28 21:04N 33°45' W 118°17'0 0.0
2015-Aug-28 20:22N 33°45' W 118°17'0 0.0
2015-Aug-28 18:16N 33°45' W 118°17'0 0.0
2015-Aug-28 15:19N 33°45' W 118°17'0 0.4
2015-Aug-28 14:33N 33°45' W 118°17'5 4.7
2015-Aug-28 13:33N 33°42' W 118°12'0 0.1
2015-Aug-28 12:25N 33°42' W 118°12'0 0.0
2015-Aug-28 11:28N 33°42' W 118°12'0 0.0
2015-Aug-28 10:13N 33°42' W 118°12'0 0.0
2015-Aug-28 09:31N 33°42' W 118°12'0 0.1
2015-Aug-28 08:31N 33°42' W 118°12'0 0.0
2015-Aug-28 07:31N 33°42' W 118°12'0 0.1
2015-Aug-28 06:19N 33°42' W 118°12'0 0.0
2015-Aug-28 05:31N 33°42' W 118°12'0 0.1
2015-Aug-28 04:31N 33°42' W 118°12'0 0.1
2015-Aug-28 03:31N 33°42' W 118°12'0 0.1
2015-Aug-28 02:31N 33°42' W 118°12'0 0.0
2015-Aug-28 01:25N 33°42' W 118°12'0 0.0
2015-Aug-28 00:31N 33°42' W 118°12'0 0.0
2015-Aug-27 23:31N 33°42' W 118°12'1 0.5
2015-Aug-27 22:33N 33°42' W 118°12'5 5.5
2015-Aug-27 21:33N 33°37' W 118°15'9 8.5
2015-Aug-27 20:33N 33°36' W 118°26'9 8.8
2015-Aug-27 19:33N 33°37' W 118°36'9 8.5
2015-Aug-27 18:33N 33°38' W 118°46'8 8.3
2015-Aug-27 17:33N 33°38' W 118°56'8 8.4
2015-Aug-27 16:33N 33°38' W 119°07'9 8.8
2015-Aug-27 15:33N 33°38' W 119°17'8 8.2
2015-Aug-27 14:33N 33°38' W 119°27'8 8.4
2015-Aug-27 13:33N 33°38' W 119°37'9 8.2
2015-Aug-27 12:29N 33°38' W 119°47'8 8.1
2015-Aug-27 11:33N 33°38' W 119°57'8 8.5
2015-Aug-27 10:34N 33°38' W 120°07'8 8.4
2015-Aug-27 09:33N 33°38' W 120°17'8 8.4
2015-Aug-27 08:33N 33°38' W 120°27'9 8.8
2015-Aug-27 07:33N 33°38' W 120°37'9 8.7
2015-Aug-27 06:33N 33°38' W 120°48'8 8.1
2015-Aug-27 05:33N 33°43' W 120°56'8 8.5
2015-Aug-27 04:33N 33°48' W 121°04'9 8.8
2015-Aug-27 03:33N 33°53' W 121°13'9 8.9
2015-Aug-27 02:32N 33°58' W 121°22'9 8.7
2015-Aug-27 01:33N 34°04' W 121°30'8 8.6
2015-Aug-27 00:33N 34°09' W 121°38'9 8.8
2015-Aug-26 23:33N 34°14' W 121°47'9 9.4
2015-Aug-26 22:33N 34°20' W 121°56'1514.7
2015-Aug-26 21:33N 34°29' W 122°10'1414.4
2015-Aug-26 20:33N 34°37' W 122°24'1515.0
2015-Aug-26 19:33N 34°46' W 122°38'1515.1
2015-Aug-26 18:33N 34°56' W 122°53'1414.0
2015-Aug-26 17:33N 35°07' W 123°02'1514.9
2015-Aug-26 16:33N 35°22' W 123°06'1514.6
2015-Aug-26 15:33N 35°36' W 123°10'1414.4
2015-Aug-26 14:33N 35°50' W 123°14'1814.3
2015-Aug-26 13:17N 36°08' W 123°19'1014.3
2015-Aug-26 12:33N 36°18' W 123°21'1614.3
2015-Aug-26 11:28N 36°33' W 123°25'1414.6
2015-Aug-26 10:30N 36°47' W 123°29'1713.8
2015-Aug-26 09:16N 37°04' W 123°26'1014.6
2015-Aug-26 08:33N 37°13' W 123°19'1514.7
2015-Aug-26 07:31N 37°26' W 123°10'1212.6
2015-Aug-26 06:33N 37°36' W 123°01'1110.9
2015-Aug-26 05:33N 37°42' W 122°49'1010.2
2015-Aug-26 04:33N 37°46' W 122°38'1110.8
2015-Aug-26 03:34N 37°51' W 122°25'8 8.2
2015-Aug-26 02:33N 37°59' W 122°26'7 7.3
2015-Aug-26 01:34N 38°03' W 122°18'3 2.9
2015-Aug-26 00:33N 38°04' W 122°15'0 0.0
2015-Aug-25 23:33N 38°04' W 122°15'0 0.0
2015-Aug-25 22:33N 38°04' W 122°15'0 0.0
2015-Aug-25 21:33N 38°04' W 122°15'0 0.0
2015-Aug-25 20:33N 38°04' W 122°15'0 0.0
2015-Aug-25 19:27N 38°04' W 122°15'0 0.0
2015-Aug-25 18:21N 38°04' W 122°15'0 0.0
2015-Aug-25 16:33N 38°04' W 122°15'0 0.0
2015-Aug-25 15:27N 38°04' W 122°15'0 0.0
2015-Aug-25 14:33N 38°04' W 122°15'0 0.0
2015-Aug-25 13:33N 38°04' W 122°15'0 0.0
2015-Aug-25 12:27N 38°04' W 122°15'0 0.0
2015-Aug-25 11:33N 38°04' W 122°15'0 0.0
2015-Aug-25 10:33N 38°04' W 122°15'0 0.0
2015-Aug-25 09:33N 38°04' W 122°15'0 0.0
2015-Aug-25 08:27N 38°04' W 122°15'0 0.0
2015-Aug-25 07:33N 38°04' W 122°15'0 0.0
2015-Aug-25 06:27N 38°04' W 122°15'0 0.0
2015-Aug-25 05:33N 38°04' W 122°15'0 0.0
2015-Aug-25 04:33N 38°04' W 122°15'0 0.0
2015-Aug-25 03:33N 38°04' W 122°15'0 0.0
2015-Aug-25 02:33N 38°04' W 122°15'0 0.0
2015-Aug-25 01:33N 38°04' W 122°15'0 0.0
2015-Aug-25 00:33N 38°04' W 122°15'0 0.0
2015-Aug-24 23:33N 38°04' W 122°15'0 0.0
2015-Aug-24 22:27N 38°04' W 122°15'0 0.0
2015-Aug-24 21:27N 38°04' W 122°15'0 0.0
2015-Aug-24 20:33N 38°04' W 122°15'0 0.0
2015-Aug-24 19:33N 38°04' W 122°15'0 0.0
2015-Aug-24 18:33N 38°04' W 122°15'0 0.0
2015-Aug-24 17:21N 38°04' W 122°15'0 0.0
2015-Aug-24 16:33N 38°04' W 122°15'0 0.0
2015-Aug-24 15:33N 38°04' W 122°15'0 0.0
2015-Aug-24 14:09N 38°04' W 122°15'0 0.0
2015-Aug-24 13:33N 38°04' W 122°15'0 0.0
2015-Aug-24 12:33N 38°04' W 122°15'0 0.0
2015-Aug-24 11:33N 38°04' W 122°15'0 0.0
2015-Aug-24 10:27N 38°04' W 122°15'0 0.0
2015-Aug-24 09:33N 38°04' W 122°15'0 0.0
2015-Aug-24 08:33N 38°04' W 122°15'0 0.0
2015-Aug-24 07:33N 38°04' W 122°15'0 0.0
2015-Aug-24 06:33N 38°04' W 122°15'0 0.0
2015-Aug-24 05:33N 38°04' W 122°15'0 0.0
2015-Aug-24 04:27N 38°04' W 122°15'0 0.0
2015-Aug-24 03:33N 38°04' W 122°15'0 0.0
2015-Aug-24 02:33N 38°04' W 122°15'0 0.0
2015-Aug-24 01:21N 38°04' W 122°15'0 0.0
2015-Aug-24 00:33N 38°04' W 122°15'0 0.0
2015-Aug-23 23:33N 38°04' W 122°15'0 0.0
2015-Aug-23 22:28N 38°04' W 122°15'0 0.0
2015-Aug-23 21:28N 38°04' W 122°15'0 0.0
2015-Aug-23 20:28N 38°04' W 122°15'0 0.0
2015-Aug-23 19:28N 38°04' W 122°15'0 0.0
2015-Aug-23 18:22N 38°04' W 122°15'0 0.4
2015-Aug-23 17:33N 38°04' W 122°15'9 8.7
2015-Aug-23 16:33N 37°60' W 122°25'1212.4
2015-Aug-23 15:33N 37°48' W 122°22'2 2.0
2015-Aug-23 14:32N 37°46' W 122°20'0 0.0
2015-Aug-23 13:32N 37°46' W 122°20'0 0.0
2015-Aug-23 12:32N 37°46' W 122°20'0 0.0
2015-Aug-23 11:32N 37°46' W 122°20'0 0.0
2015-Aug-23 10:32N 37°46' W 122°20'0 0.0
2015-Aug-23 09:32N 37°46' W 122°20'0 0.1
2015-Aug-23 08:32N 37°46' W 122°20'0 0.1
2015-Aug-23 07:32N 37°46' W 122°20'0 0.0
2015-Aug-23 06:32N 37°46' W 122°20'0 0.0
2015-Aug-23 05:32N 37°46' W 122°20'0 0.0
2015-Aug-23 04:32N 37°46' W 122°20'0 0.0
2015-Aug-23 03:32N 37°46' W 122°20'0 0.1
2015-Aug-23 02:32N 37°46' W 122°20'0 0.1
2015-Aug-23 01:32N 37°46' W 122°20'0 0.0
2015-Aug-23 00:32N 37°46' W 122°20'0 0.1
2015-Aug-22 23:32N 37°46' W 122°20'0 0.1
2015-Aug-22 22:32N 37°46' W 122°20'0 0.0
2015-Aug-22 21:31N 37°46' W 122°20'0 0.0
2015-Aug-22 20:31N 37°46' W 122°20'0 0.1
2015-Aug-22 19:34N 37°46' W 122°20'0 0.2
2015-Aug-22 18:31N 37°46' W 122°20'0 0.1
2015-Aug-22 17:31N 37°46' W 122°20'0 0.0
2015-Aug-22 16:31N 37°46' W 122°20'0 0.0
2015-Aug-22 15:34N 37°46' W 122°20'0 0.0
2015-Aug-22 14:34N 37°46' W 122°20'0 0.1
2015-Aug-22 13:31N 37°46' W 122°20'0 0.1
2015-Aug-22 12:31N 37°46' W 122°20'0 0.0
2015-Aug-22 11:34N 37°46' W 122°20'0 0.0
2015-Aug-22 10:31N 37°46' W 122°20'0 0.0
2015-Aug-22 09:34N 37°46' W 122°20'0 0.0
2015-Aug-22 08:34N 37°46' W 122°20'0 0.1
2015-Aug-22 07:31N 37°46' W 122°20'0 0.1
2015-Aug-22 06:31N 37°46' W 122°20'0 0.0
2015-Aug-22 05:31N 37°46' W 122°20'0 0.0
2015-Aug-22 04:31N 37°46' W 122°20'0 0.0
2015-Aug-22 03:31N 37°46' W 122°20'0 0.0
2015-Aug-22 02:31N 37°46' W 122°20'0 0.0
2015-Aug-22 01:31N 37°46' W 122°20'0 0.1
2015-Aug-22 00:31N 37°46' W 122°20'0 0.1
2015-Aug-21 23:31N 37°46' W 122°20'0 0.0
2015-Aug-21 22:31N 37°46' W 122°20'0 0.0
2015-Aug-21 21:31N 37°46' W 122°20'0 0.0
2015-Aug-21 20:31N 37°46' W 122°20'5 5.7
2015-Aug-21 19:34N 37°49' W 122°26'1312.7
2015-Aug-21 18:33N 37°44' W 122°41'10 9.8
2015-Aug-21 17:33N 37°39' W 122°51'10 9.8
2015-Aug-21 16:33N 37°33' W 123°01'9 9.4
2015-Aug-21 15:33N 37°28' W 123°11'9 9.4
2015-Aug-21 14:33N 37°24' W 123°22'8 7.8
2015-Aug-21 13:33N 37°22' W 123°31'1010.6
2015-Aug-21 12:34N 37°32' W 123°34'1414.0
2015-Aug-21 11:33N 37°42' W 123°47'1413.8
2015-Aug-21 10:33N 37°51' W 124°00'1413.8
2015-Aug-21 09:34N 38°01' W 124°12'1413.9
2015-Aug-21 08:33N 38°12' W 124°23'1414.2
2015-Aug-21 07:33N 38°24' W 124°33'1414.2
2015-Aug-21 06:33N 38°35' W 124°44'1414.2
2015-Aug-21 05:33N 38°48' W 124°53'1614.6
2015-Aug-21 04:29N 39°02' W 125°02'28514.2
2015-Aug-20 08:28N 43°45' W 125°45'1414.0
2015-Aug-20 07:29N 43°59' W 125°45'  

Dump ship's entire track history